Time;durP1;ratioP1;P1;durP2;ratioP2;P2;SDS_P1;SDS_P2;PMS_P1;PMS_P2;Temp;Humidity;BMP_temperature;BMP_pressure;BME280_temperature;BME280_humidity;BME280_pressure;Samples;Min_cycle;Max_cycle;Signal;HPM_P1;HPM_P2
2021/09/05 00:01:45;;;;;;;6.10;3.80;;;;;;;30.90;21.41;94531.53;5037123;28;20515;-51
2021/09/05 00:04:12;;;;;;;5.20;4.00;;;;;;;30.90;21.55;94526.13;5037542;28;20045;-54
2021/09/05 00:06:39;;;;;;;4.63;3.50;;;;;;;30.76;21.68;94529.09;5037416;28;20057;-51
2021/09/05 00:09:06;;;;;;;5.78;5.20;;;;;;;30.59;21.47;94534.31;5039280;28;20486;-51
2021/09/05 00:11:34;;;;;;;5.65;4.95;;;;;;;30.63;21.43;94535.06;5057242;28;20064;-52
2021/09/05 00:14:02;;;;;;;4.80;4.40;;;;;;;30.79;21.13;94536.34;5037640;28;20048;-52
2021/09/05 00:16:30;;;;;;;4.60;4.20;;;;;;;30.69;21.45;94538.78;5037194;28;20060;-53
2021/09/05 00:18:58;;;;;;;4.05;3.65;;;;;;;30.57;21.51;94531.28;5020473;28;20050;-54
2021/09/05 00:21:25;;;;;;;4.38;3.72;;;;;;;30.90;21.46;94534.22;5055797;28;20045;-53
2021/09/05 00:23:52;;;;;;;5.97;4.57;;;;;;;30.63;21.72;94545.84;5035641;28;20053;-52
2021/09/05 00:26:20;;;;;;;7.85;4.25;;;;;;;30.48;21.72;94544.53;5048869;28;20053;-51
2021/09/05 00:28:48;;;;;;;4.47;3.90;;;;;;;30.40;22.02;94537.69;5056468;28;20056;-52
2021/09/05 00:31:15;;;;;;;5.13;4.07;;;;;;;30.42;21.66;94539.97;5056840;28;20049;-52
2021/09/05 00:33:42;;;;;;;9.57;3.95;;;;;;;30.55;21.49;94543.66;5055937;28;20045;-52
2021/09/05 00:36:09;;;;;;;5.45;3.83;;;;;;;30.52;21.62;94547.94;5056943;28;20515;-53
2021/09/05 00:38:39;;;;;;;6.30;3.65;;;;;;;30.39;21.81;94546.97;5056794;28;20075;-54
2021/09/05 00:41:06;;;;;;;6.40;4.20;;;;;;;30.19;21.93;94546.09;5055294;28;20061;-53
2021/09/05 00:43:52;;;;;;;4.90;3.92;;;;;;;30.49;21.72;94539.91;5056464;28;20053;-54
2021/09/05 00:46:19;;;;;;;4.30;3.55;;;;;;;30.30;21.91;94549.41;5056716;28;20060;-50
2021/09/05 00:48:46;;;;;;;4.50;4.10;;;;;;;30.39;21.74;94546.97;5056653;28;20052;-50
2021/09/05 00:51:13;;;;;;;3.95;3.50;;;;;;;30.33;21.92;94554.00;5036284;28;20053;-53
2021/09/05 00:53:40;;;;;;;4.40;4.00;;;;;;;30.22;22.05;94553.41;5030939;28;20049;-51
2021/09/05 00:56:08;;;;;;;4.80;3.53;;;;;;;30.21;21.99;94554.56;5034739;28;20175;-50
2021/09/05 00:58:38;;;;;;;4.68;3.92;;;;;;;30.15;22.22;94554.25;5019485;28;20053;-50
2021/09/05 01:01:05;;;;;;;6.13;4.07;;;;;;;30.21;22.04;94562.66;5038495;28;20052;-51
2021/09/05 01:03:32;;;;;;;6.97;4.07;;;;;;;30.18;22.13;94558.06;5034971;28;20050;-53
2021/09/05 01:06:09;;;;;;;4.50;3.60;;;;;;;29.99;22.43;94557.53;5035946;28;20045;-52
2021/09/05 01:08:37;;;;;;;3.65;3.35;;;;;;;30.00;22.41;94559.06;5036391;28;20363;-50
2021/09/05 01:11:05;;;;;;;4.55;3.90;;;;;;;29.96;22.33;94563.72;5020469;28;20052;-51
2021/09/05 01:13:35;;;;;;;5.07;4.18;;;;;;;29.94;22.37;94568.78;5049192;28;20049;-51
2021/09/05 01:16:03;;;;;;;5.68;4.00;;;;;;;30.04;22.24;94570.56;5055536;28;20088;-51
2021/09/05 01:18:38;;;;;;;4.85;4.03;;;;;;;30.21;21.94;94565.34;5038315;28;20041;-50
2021/09/05 01:21:24;;;;;;;4.57;3.80;;;;;;;29.95;22.27;94567.59;5034878;28;20057;-54
2021/09/05 01:24:23;;;;;;;4.38;3.80;;;;;;;29.94;22.11;94568.78;5035864;28;20372;-51
2021/09/05 01:27:13;;;;;;;4.30;3.90;;;;;;;30.01;22.29;94568.66;5035188;28;20408;-51
2021/09/05 01:30:04;;;;;;;6.38;3.63;;;;;;;29.97;22.23;94565.25;5035438;28;20045;-50
2021/09/05 01:33:06;;;;;;;5.38;4.15;;;;;;;29.82;22.47;94572.00;4974653;28;20062;-55
2021/09/05 01:35:52;;;;;;;4.85;4.03;;;;;;;29.71;22.29;94568.69;5014121;28;20049;-50
2021/09/05 01:38:57;;;;;;;4.57;4.13;;;;;;;29.80;22.40;94566.25;4954613;29;20063;-50
2021/09/05 01:41:45;;;;;;;5.70;4.30;;;;;;;29.87;22.28;94571.53;4954849;29;20058;-52
2021/09/05 01:44:17;;;;;;;8.88;4.50;;;;;;;29.78;22.81;94573.97;5022782;28;20060;-50
2021/09/05 01:47:03;;;;;;;5.63;3.95;;;;;;;29.90;22.35;94575.34;5055502;28;20061;-51
2021/09/05 01:49:49;;;;;;;6.07;4.00;;;;;;;29.59;22.67;94579.97;5048135;28;20052;-51
2021/09/05 01:52:30;;;;;;;6.30;3.90;;;;;;;29.68;22.50;94585.66;5021799;28;20056;-51
2021/09/05 01:55:18;;;;;;;4.80;4.00;;;;;;;29.64;22.73;94584.91;5019592;28;20053;-51
2021/09/05 01:58:03;;;;;;;5.82;4.65;;;;;;;29.64;22.72;94574.13;5034775;28;20061;-52
2021/09/05 02:00:49;;;;;;;5.75;3.95;;;;;;;29.79;22.50;94575.50;5034148;28;20499;-49
2021/09/05 02:03:27;;;;;;;4.95;3.95;;;;;;;29.60;22.62;94574.16;5018050;28;20063;-49
2021/09/05 02:06:00;;;;;;;4.82;3.95;;;;;;;29.59;22.79;94580.72;5017437;28;20052;-52
2021/09/05 02:08:55;;;;;;;5.88;3.95;;;;;;;29.62;22.80;94587.22;5004133;28;20064;-49
2021/09/05 02:11:52;;;;;;;4.32;3.92;;;;;;;29.65;22.55;94583.72;5033920;28;20057;-51
2021/09/05 02:14:42;;;;;;;4.95;4.45;;;;;;;29.47;22.72;94586.66;5024385;28;20056;-54
2021/09/05 02:17:29;;;;;;;4.93;4.40;;;;;;;29.61;22.46;94585.72;5032615;28;20353;-52
2021/09/05 02:20:09;;;;;;;6.40;4.30;;;;;;;29.58;22.73;94576.50;5029570;28;20057;-49
2021/09/05 02:22:54;;;;;;;4.78;4.32;;;;;;;29.44;22.72;94580.13;5053986;28;20364;-50
2021/09/05 02:25:53;;;;;;;4.35;3.90;;;;;;;29.36;22.96;94575.94;5035993;28;20057;-52
2021/09/05 02:28:21;;;;;;;4.80;3.95;;;;;;;29.44;22.99;94571.25;5054931;28;20485;-53
2021/09/05 02:31:20;;;;;;;4.85;3.83;;;;;;;29.39;22.82;94585.91;5054244;28;20387;-51
2021/09/05 02:34:00;;;;;;;6.07;4.50;;;;;;;29.31;22.89;94581.78;5053889;28;20481;-52
2021/09/05 02:36:42;;;;;;;4.60;4.20;;;;;;;29.29;23.17;94592.19;5053192;28;20332;-52
2021/09/05 02:39:45;;;;;;;6.13;4.28;;;;;;;29.24;22.82;94584.53;5037598;28;20064;-52
2021/09/05 02:42:18;;;;;;;5.70;4.47;;;;;;;29.49;22.43;94591.63;5034636;28;20049;-52
2021/09/05 02:45:05;;;;;;;4.63;3.90;;;;;;;29.41;22.79;94594.38;5034501;28;20049;-51
2021/09/05 02:48:05;;;;;;;5.78;4.53;;;;;;;29.48;22.67;94582.03;4990814;28;20053;-52
2021/09/05 02:50:51;;;;;;;5.05;4.47;;;;;;;29.25;22.96;94580.69;5034097;28;20071;-51
2021/09/05 02:53:44;;;;;;;4.90;4.30;;;;;;;29.51;22.61;94581.22;5033555;28;20041;-52
2021/09/05 02:56:35;;;;;;;5.63;4.40;;;;;;;29.45;22.62;94573.59;5047128;28;20127;-52
2021/09/05 02:59:20;;;;;;;6.13;4.57;;;;;;;29.40;22.69;94586.66;5034716;28;20050;-54
2021/09/05 03:02:16;;;;;;;5.43;4.68;;;;;;;29.48;22.59;94587.41;4966213;28;20099;-53
2021/09/05 03:05:06;;;;;;;7.72;4.60;;;;;;;29.09;23.02;94589.28;5052724;28;20057;-52
2021/09/05 03:07:53;;;;;;;5.10;4.60;;;;;;;29.26;22.98;94594.91;5052121;28;20053;-54
2021/09/05 03:10:50;;;;;;;6.35;4.90;;;;;;;29.54;22.48;94586.56;4999199;28;20061;-51
2021/09/05 03:13:42;;;;;;;5.68;4.97;;;;;;;29.51;22.54;94587.38;5043441;28;20059;-53
2021/09/05 03:16:31;;;;;;;;;;;;;;;29.39;22.75;94585.91;5046646;28;20355;-54
2021/09/05 03:19:34;;;;;;;;;;;;;;;29.28;22.95;94582.56;5052163;28;19913;-53
2021/09/05 03:22:21;;;;;;;5.95;4.97;;;;;;;29.25;23.04;94588.00;5018892;28;20227;-52
2021/09/05 03:25:03;;;;;;;;;;;;;;;29.07;23.25;94583.53;5058095;28;20041;-51
2021/09/05 03:27:50;;;;;;;5.72;4.45;;;;;;;29.23;22.84;94590.31;5039917;28;19925;-53
2021/09/05 03:30:43;;;;;;;5.75;4.93;;;;;;;28.78;23.43;94590.31;5036523;28;20383;-56
2021/09/05 03:33:29;;;;;;;6.78;4.40;;;;;;;28.98;23.19;94598.63;5023232;28;20042;-50
2021/09/05 03:36:25;;;;;;;8.00;5.00;;;;;;;28.95;23.08;94599.44;4983707;28;20059;-50
2021/09/05 03:39:05;;;;;;;8.43;4.80;;;;;;;28.98;22.94;94604.78;5005189;28;20049;-51
2021/09/05 03:42:02;;;;;;;7.90;4.80;;;;;;;29.03;23.48;94606.28;5023979;28;20586;-49
2021/09/05 03:44:48;;;;;;;7.90;4.90;;;;;;;28.91;23.40;94609.47;5037771;28;20325;-50
2021/09/05 03:47:35;;;;;;;6.55;4.50;;;;;;;28.98;23.11;94610.16;5006354;28;20391;-53
2021/09/05 03:50:29;;;;;;;5.07;4.57;;;;;;;29.09;23.09;94610.06;5031495;28;20057;-50
2021/09/05 03:52:56;;;;;;;6.38;4.53;;;;;;;28.80;23.62;94615.66;5037638;28;20060;-50
2021/09/05 03:55:25;;;;;;;5.43;4.90;;;;;;;28.89;23.23;94617.16;5020233;28;20468;-52
2021/09/05 03:57:55;;;;;;;7.13;4.50;;;;;;;28.85;23.57;94620.63;5036844;28;20045;-51
2021/09/05 04:00:26;;;;;;;5.70;4.90;;;;;;;28.78;23.54;94626.03;5035813;28;20045;-51
2021/09/05 04:02:55;;;;;;;5.50;4.57;;;;;;;29.13;22.95;94624.25;5053379;28;20291;-53
2021/09/05 04:05:23;;;;;;;5.75;4.82;;;;;;;29.00;23.26;94631.28;5026582;28;20348;-50
2021/09/05 04:08:01;;;;;;;7.65;5.07;;;;;;;28.97;23.00;94629.41;5020034;28;20041;-51
2021/09/05 04:10:28;;;;;;;6.97;4.80;;;;;;;29.00;23.22;94632.06;5047223;28;20053;-51
2021/09/05 04:12:57;;;;;;;6.65;4.68;;;;;;;29.02;23.23;94632.41;5077245;28;20048;-50
2021/09/05 04:15:24;;;;;;;6.95;5.05;;;;;;;29.13;23.15;94633.06;5077382;28;20052;-49
2021/09/05 04:17:51;;;;;;;7.78;5.05;;;;;;;29.26;23.11;94627.97;5076491;28;20048;-49
2021/09/05 04:20:18;;;;;;;7.03;4.93;;;;;;;29.15;23.08;94636.16;5054095;28;20051;-52
2021/09/05 04:22:46;;;;;;;8.38;4.53;;;;;;;29.26;23.11;94633.38;5057217;28;20521;-53
2021/09/05 04:25:14;;;;;;;8.15;4.78;;;;;;;29.15;23.22;94640.78;5055943;28;20663;-51
2021/09/05 04:27:41;;;;;;;8.38;4.93;;;;;;;29.00;23.40;94639.38;5057118;28;20056;-52
2021/09/05 04:30:10;;;;;;;5.97;5.00;;;;;;;29.16;23.55;94642.31;5047220;28;20045;-49
2021/09/05 04:32:38;;;;;;;8.27;4.85;;;;;;;29.08;23.86;94641.59;5056276;28;20083;-53
2021/09/05 04:35:05;;;;;;;6.22;4.75;;;;;;;29.06;23.87;94640.47;5055812;28;20466;-50
2021/09/05 04:37:33;;;;;;;5.93;4.55;;;;;;;29.39;23.35;94642.44;5038711;28;20053;-50
2021/09/05 04:40:02;;;;;;;9.00;4.55;;;;;;;29.40;23.78;94646.66;5056228;28;20057;-51
2021/09/05 04:42:29;;;;;;;8.35;4.95;;;;;;;29.48;23.84;94646.66;5056049;28;20045;-54
2021/09/05 04:44:56;;;;;;;6.88;4.60;;;;;;;29.43;23.98;94629.75;5056578;28;20478;-51
2021/09/05 04:47:23;;;;;;;5.63;4.60;;;;;;;29.52;24.08;94636.59;5056926;28;20053;-52
2021/09/05 04:49:50;;;;;;;5.60;4.22;;;;;;;29.53;24.25;94638.13;5047789;28;20053;-50
2021/09/05 04:52:17;;;;;;;6.82;4.60;;;;;;;29.67;24.43;94638.00;5045074;28;20368;-52
2021/09/05 04:54:44;;;;;;;7.50;5.25;;;;;;;29.84;23.79;94641.63;5035639;28;20056;-53
2021/09/05 04:57:11;;;;;;;5.05;4.00;;;;;;;29.80;23.55;94638.97;5055288;28;20128;-52
2021/09/05 04:59:38;;;;;;;5.75;4.07;;;;;;;29.81;23.32;94637.81;5049309;28;20052;-51
2021/09/05 05:02:06;;;;;;;6.55;3.95;;;;;;;30.06;22.86;94648.31;5039390;28;20060;-53
2021/09/05 05:04:33;;;;;;;5.22;4.18;;;;;;;30.05;22.44;94644.09;5055357;28;20041;-50
2021/09/05 05:07:00;;;;;;;5.28;4.05;;;;;;;30.15;22.24;94645.13;5056219;28;20055;-53
2021/09/05 05:09:27;;;;;;;4.28;3.88;;;;;;;30.07;22.14;94647.94;5050874;28;20041;-52
2021/09/05 05:11:54;;;;;;;5.32;3.90;;;;;;;30.26;22.19;94651.16;5035136;28;20053;-52
2021/09/05 05:14:21;;;;;;;6.20;4.20;;;;;;;30.25;22.24;94652.34;5036269;28;20037;-54
2021/09/05 05:16:48;;;;;;;5.75;4.57;;;;;;;30.23;22.13;94651.97;5018805;28;20368;-53
2021/09/05 05:19:15;;;;;;;6.75;4.25;;;;;;;30.38;21.94;94650.59;5034915;28;20049;-54
2021/09/05 05:21:42;;;;;;;5.03;4.50;;;;;;;30.44;21.93;94651.66;5017721;28;20053;-57
2021/09/05 05:24:09;;;;;;;5.65;4.32;;;;;;;30.32;22.15;94646.84;5036166;28;20049;-54
2021/09/05 05:26:36;;;;;;;5.10;4.10;;;;;;;30.43;21.77;94650.16;5048987;28;20139;-53
2021/09/05 05:29:03;;;;;;;6.00;4.68;;;;;;;30.49;21.77;94664.72;5055677;28;20044;-51
2021/09/05 05:31:30;;;;;;;5.95;4.80;;;;;;;30.38;21.91;94664.09;5017612;28;20045;-58
2021/09/05 05:33:57;;;;;;;5.47;4.57;;;;;;;30.36;22.19;94659.09;5053656;28;20060;-55
2021/09/05 05:36:24;;;;;;;6.72;4.85;;;;;;;30.35;22.18;94664.91;5054816;28;20051;-53
2021/09/05 05:38:51;;;;;;;5.85;4.25;;;;;;;30.47;22.61;94666.31;5054517;28;20041;-52
2021/09/05 05:41:19;;;;;;;6.38;4.55;;;;;;;30.61;22.21;94672.28;5054688;28;20083;-52
2021/09/05 05:43:47;;;;;;;6.57;4.60;;;;;;;30.75;21.71;94674.03;5037165;28;20045;-52
2021/09/05 05:46:14;;;;;;;6.55;4.68;;;;;;;30.87;21.81;94672.69;5035629;28;20060;-54
2021/09/05 05:48:41;;;;;;;5.30;4.80;;;;;;;31.20;21.28;94674.47;5042815;28;20052;-51
2021/09/05 05:51:08;;;;;;;7.43;4.68;;;;;;;31.24;21.42;94672.50;5037462;28;20392;-52
2021/09/05 05:53:35;;;;;;;7.15;4.57;;;;;;;31.23;21.25;94676.38;5035316;28;20064;-53
2021/09/05 05:56:03;;;;;;;5.93;4.60;;;;;;;31.57;20.78;94670.00;5044902;28;20044;-52
2021/09/05 05:58:30;;;;;;;5.38;4.47;;;;;;;31.49;20.69;94679.41;5054499;28;20053;-53
2021/09/05 06:00:57;;;;;;;6.03;5.40;;;;;;;31.49;20.79;94668.59;5039479;28;20052;-53
2021/09/05 06:03:25;;;;;;;7.57;5.07;;;;;;;31.83;20.68;94676.50;5048331;28;20063;-53
2021/09/05 06:05:54;;;;;;;6.00;5.15;;;;;;;31.97;20.66;94675.47;5053774;28;20044;-52
2021/09/05 06:08:21;;;;;;;5.70;5.10;;;;;;;32.05;20.69;94666.06;5055137;28;20436;-51
2021/09/05 06:10:48;;;;;;;6.53;5.10;;;;;;;31.84;20.57;94670.69;5054790;28;20464;-51
2021/09/05 06:13:15;;;;;;;6.07;5.05;;;;;;;32.25;20.57;94674.13;5046618;28;20056;-51
2021/09/05 06:15:42;;;;;;;7.28;5.38;;;;;;;32.35;20.63;94681.31;5054444;28;20060;-53
2021/09/05 06:18:09;;;;;;;7.38;5.47;;;;;;;31.88;20.67;94687.59;5053080;28;20055;-53
2021/09/05 06:20:36;;;;;;;7.07;5.55;;;;;;;32.03;20.93;94681.94;5043316;28;20064;-54
2021/09/05 06:23:03;;;;;;;6.43;5.50;;;;;;;31.97;20.94;94692.44;5044300;28;20045;-52
2021/09/05 06:25:30;;;;;;;6.90;5.15;;;;;;;32.03;20.86;94695.44;5053368;28;20053;-51
2021/09/05 06:27:57;;;;;;;6.65;5.43;;;;;;;31.87;20.67;94694.19;5055084;28;20444;-52
2021/09/05 06:30:24;;;;;;;8.48;5.28;;;;;;;31.94;20.72;94684.41;5044917;28;20727;-52
2021/09/05 06:32:51;;;;;;;5.75;5.18;;;;;;;31.79;20.93;94692.03;5034623;28;20049;-52
2021/09/05 06:35:19;;;;;;;5.75;5.15;;;;;;;31.81;20.86;94693.16;5034468;28;20045;-51
2021/09/05 06:37:46;;;;;;;6.60;5.28;;;;;;;31.80;21.09;94705.13;5034821;28;20491;-52
2021/09/05 06:40:13;;;;;;;6.20;5.25;;;;;;;31.99;20.86;94705.53;5034144;28;20052;-54
2021/09/05 06:42:40;;;;;;;8.18;5.82;;;;;;;32.01;20.57;94697.78;5040049;28;20060;-54
2021/09/05 06:45:07;;;;;;;7.93;5.35;;;;;;;32.05;20.73;94703.91;5054446;28;20049;-57
2021/09/05 06:47:34;;;;;;;6.53;5.55;;;;;;;31.93;20.56;94709.91;5054400;28;20056;-52
2021/09/05 06:50:02;;;;;;;6.93;5.85;;;;;;;31.94;20.89;94711.44;5053150;28;20049;-56
2021/09/05 06:52:29;;;;;;;8.60;5.32;;;;;;;31.84;20.91;94711.22;5050303;28;20060;-57
2021/09/05 06:54:57;;;;;;;6.75;5.97;;;;;;;32.01;21.13;94703.19;5033973;28;20364;-55
2021/09/05 06:57:24;;;;;;;7.47;5.55;;;;;;;31.79;21.03;94711.72;5054355;28;20502;-56
2021/09/05 06:59:51;;;;;;;6.57;5.75;;;;;;;31.88;21.07;94713.88;5049874;28;20456;-54
2021/09/05 07:02:20;;;;;;;6.25;5.20;;;;;;;32.07;21.13;94717.78;5035684;28;20057;-54
2021/09/05 07:04:48;;;;;;;6.35;5.65;;;;;;;32.05;21.15;94728.25;5054145;28;20052;-54
2021/09/05 07:07:15;;;;;;;7.90;5.63;;;;;;;32.07;21.18;94723.19;5054168;28;20064;-56
2021/09/05 07:09:42;;;;;;;7.55;6.18;;;;;;;32.02;21.07;94726.38;5053540;28;20048;-55
2021/09/05 07:12:09;;;;;;;8.45;6.20;;;;;;;31.94;21.21;94730.38;5052995;28;20053;-56
2021/09/05 07:14:36;;;;;;;7.30;6.15;;;;;;;31.89;21.11;94732.38;5054259;28;20041;-56
2021/09/05 07:17:04;;;;;;;7.57;6.05;;;;;;;32.34;20.28;94729.22;5054138;28;20359;-52
2021/09/05 07:19:31;;;;;;;8.90;5.60;;;;;;;32.59;20.00;94728.72;5036294;28;20060;-58
2021/09/05 07:21:58;;;;;;;8.80;5.60;;;;;;;32.65;20.71;94734.41;5053439;28;20467;-55
2021/09/05 07:24:25;;;;;;;6.03;5.43;;;;;;;33.68;19.75;94732.06;5034785;28;20050;-58
2021/09/05 07:26:52;;;;;;;12.65;5.90;;;;;;;34.24;18.63;94729.81;5049788;28;20069;-57
2021/09/05 07:29:20;;;;;;;7.97;5.72;;;;;;;33.56;19.62;94724.59;5053075;28;20464;-56
2021/09/05 07:31:47;;;;;;;8.57;6.25;;;;;;;33.91;19.63;94721.03;5054045;28;20479;-57
2021/09/05 07:34:14;;;;;;;6.05;5.55;;;;;;;33.98;18.83;94723.53;5036448;28;20065;-56
2021/09/05 07:36:41;;;;;;;6.30;5.68;;;;;;;33.29;19.43;94727.56;5032946;28;20056;-59
2021/09/05 07:39:09;;;;;;;6.70;5.50;;;;;;;33.24;20.06;94731.53;5034009;28;20057;-58
2021/09/05 07:41:37;;;;;;;6.80;5.97;;;;;;;33.01;20.00;94724.31;5033239;28;20060;-56
2021/09/05 07:44:04;;;;;;;9.13;5.85;;;;;;;32.76;20.56;94734.91;5033601;28;20046;-58
2021/09/05 07:46:31;;;;;;;6.65;5.95;;;;;;;33.11;19.61;94736.88;5033994;28;20060;-58
2021/09/05 07:48:58;;;;;;;7.15;6.32;;;;;;;33.07;19.85;94733.50;5033045;28;20058;-52
2021/09/05 07:51:25;;;;;;;7.68;6.85;;;;;;;32.99;20.23;94739.47;5033212;28;20057;-52
2021/09/05 07:53:53;;;;;;;8.40;6.95;;;;;;;33.11;19.98;94742.28;5046874;28;20056;-54
2021/09/05 07:56:21;;;;;;;9.68;6.50;;;;;;;33.34;19.65;94737.94;5052729;28;20053;-53
2021/09/05 07:58:48;;;;;;;7.18;6.30;;;;;;;33.41;19.95;94735.03;5053123;28;20060;-52
2021/09/05 08:01:16;;;;;;;8.52;6.32;;;;;;;33.50;19.98;94742.56;5053631;28;20064;-53
2021/09/05 08:03:43;;;;;;;8.80;6.70;;;;;;;33.51;19.92;94739.44;5040571;28;20049;-53
2021/09/05 08:06:10;;;;;;;8.05;6.50;;;;;;;33.30;20.03;94739.91;5036704;28;20064;-54
2021/09/05 08:08:37;;;;;;;6.38;5.78;;;;;;;33.45;20.02;94741.13;5037137;28;20482;-53
2021/09/05 08:11:05;;;;;;;9.07;6.05;;;;;;;33.13;19.84;94738.41;5036304;28;20379;-56
2021/09/05 08:13:33;;;;;;;7.88;6.10;;;;;;;33.50;19.79;94737.91;5037050;28;20080;-54
2021/09/05 08:16:01;;;;;;;11.35;6.43;;;;;;;33.37;20.33;94734.38;5036992;28;20049;-53
2021/09/05 08:18:35;;;;;;;6.88;6.28;;;;;;;33.30;20.35;94723.66;5037400;28;20057;-53
2021/09/05 08:21:06;;;;;;;8.25;6.60;;;;;;;33.18;20.13;94733.22;5037041;28;20478;-55
2021/09/05 08:23:33;;;;;;;7.32;6.63;;;;;;;33.61;19.97;94734.94;5019395;28;20091;-52
2021/09/05 08:26:01;;;;;;;7.45;6.22;;;;;;;33.48;20.33;94740.28;5035746;28;20376;-54
2021/09/05 08:28:28;;;;;;;8.02;6.53;;;;;;;33.80;20.08;94749.56;5046070;28;20065;-53
2021/09/05 08:30:55;;;;;;;7.68;6.22;;;;;;;34.02;19.50;94745.88;5056458;28;20059;-53
2021/09/05 08:33:23;;;;;;;6.20;5.60;;;;;;;34.57;19.40;94745.97;5048356;28;20444;-57
2021/09/05 08:35:50;;;;;;;8.45;6.32;;;;;;;35.34;18.38;94747.56;5054997;28;20041;-53
2021/09/05 08:38:17;;;;;;;11.02;6.60;;;;;;;35.62;18.43;94747.84;5056064;28;20478;-53
2021/09/05 08:40:46;;;;;;;8.32;5.45;;;;;;;35.42;18.32;94738.00;5055957;28;20040;-53
2021/09/05 08:43:14;;;;;;;7.43;6.28;;;;;;;35.06;18.95;94732.13;5048644;28;20049;-56
2021/09/05 08:45:43;;;;;;;7.10;5.60;;;;;;;35.68;18.04;94727.06;5036193;28;20049;-54
2021/09/05 08:48:11;;;;;;;10.02;5.47;;;;;;;35.87;17.95;94734.19;5036334;28;20049;-54
2021/09/05 08:50:38;;;;;;;5.78;5.18;;;;;;;35.78;17.60;94736.81;5036681;28;20053;-54
2021/09/05 08:53:05;;;;;;;8.45;6.57;;;;;;;35.51;18.37;94729.94;5041333;28;20049;-53
2021/09/05 08:55:34;;;;;;;11.98;7.78;;;;;;;35.56;18.12;94730.56;5056059;28;20045;-54
2021/09/05 08:58:01;;;;;;;10.35;6.15;;;;;;;35.55;18.36;94729.81;5056184;28;20041;-52
2021/09/05 09:00:28;;;;;;;7.05;6.07;;;;;;;35.23;18.55;94730.81;5055774;28;20063;-55
2021/09/05 09:02:56;;;;;;;6.70;5.40;;;;;;;35.27;18.25;94736.91;5055293;28;20045;-52
2021/09/05 09:05:36;;;;;;;7.57;5.10;;;;;;;35.63;18.03;94722.16;5052988;28;20056;-53
2021/09/05 09:08:08;;;;;;;7.50;5.20;;;;;;;35.67;17.90;94736.44;5056376;28;20049;-54
2021/09/05 09:10:57;;;;;;;6.88;5.10;;;;;;;36.02;17.79;94726.31;5056188;28;20067;-54
2021/09/05 09:13:37;;;;;;;6.47;4.70;;;;;;;35.91;17.67;94723.94;5060121;28;20050;-53
2021/09/05 09:16:09;;;;;;;7.45;5.43;;;;;;;36.12;17.38;94723.22;5025997;28;20387;-56
2021/09/05 09:18:39;;;;;;;6.95;4.95;;;;;;;36.27;16.97;94722.72;5036061;28;20056;-60
2021/09/05 09:21:08;;;;;;;6.50;4.32;;;;;;;36.59;16.89;94727.00;5035225;28;20054;-54
2021/09/05 09:23:37;;;;;;;5.72;4.20;;;;;;;36.54;16.37;94717.47;5046378;28;20049;-58
2021/09/05 09:26:14;;;;;;;5.50;3.40;;;;;;;36.56;15.81;94706.13;5037425;28;20053;-56
2021/09/05 09:28:49;;;;;;;5.22;3.47;;;;;;;36.85;15.76;94712.03;5055410;28;20061;-57
2021/09/05 09:31:25;;;;;;;7.78;4.20;;;;;;;36.88;15.76;94710.38;5055611;28;20045;-54
2021/09/05 09:33:58;;;;;;;4.65;3.53;;;;;;;36.91;16.19;94699.34;5055624;28;20049;-59
2021/09/05 09:36:29;;;;;;;6.28;4.35;;;;;;;37.11;15.25;94709.09;5055598;28;20388;-52
2021/09/05 09:38:58;;;;;;;4.68;3.60;;;;;;;37.26;15.69;94701.91;5055813;28;20048;-56
2021/09/05 09:41:40;;;;;;;5.25;3.75;;;;;;;37.09;16.18;94698.66;5054670;28;20052;-53
2021/09/05 09:44:13;;;;;;;5.60;4.00;;;;;;;37.11;15.40;94696.25;5055364;28;20076;-56
2021/09/05 09:46:44;;;;;;;4.13;3.70;;;;;;;36.96;15.80;94701.50;5055308;28;20064;-57
2021/09/05 09:49:12;;;;;;;5.85;3.80;;;;;;;36.94;15.57;94697.69;5055464;28;20049;-58
2021/09/05 09:51:41;;;;;;;5.78;3.33;;;;;;;37.05;15.57;94701.53;5055360;28;20053;-58
2021/09/05 09:54:08;;;;;;;4.47;3.67;;;;;;;37.33;15.14;94696.94;5055287;28;20044;-54
2021/09/05 09:56:37;;;;;;;5.35;3.40;;;;;;;37.54;15.11;94689.09;5054121;28;20053;-55
2021/09/05 09:59:06;;;;;;;3.88;3.40;;;;;;;37.62;15.06;94695.75;5055344;28;20049;-58
2021/09/05 10:01:34;;;;;;;4.05;3.50;;;;;;;37.77;14.66;94691.25;5055255;28;20063;-60
2021/09/05 10:04:02;;;;;;;3.72;3.38;;;;;;;37.66;14.51;94697.13;5055004;28;20063;-52
2021/09/05 10:06:34;;;;;;;5.40;3.38;;;;;;;37.74;14.52;94700.34;5054241;28;20053;-53
2021/09/05 10:09:03;;;;;;;7.15;3.67;;;;;;;36.92;14.45;94698.13;5037293;28;20044;-52
2021/09/05 10:11:31;;;;;;;8.63;7.78;;;;;;;37.38;14.04;94705.72;5053995;28;20049;-52
2021/09/05 10:13:59;;;;;;;5.82;4.80;;;;;;;37.44;14.15;94695.72;5027449;28;20041;-54
2021/09/05 10:16:26;;;;;;;16.35;14.68;;;;;;;37.49;14.34;94700.59;5034961;28;20050;-54
2021/09/05 10:19:05;;;;;;;9.38;8.45;;;;;;;37.52;14.41;94692.28;5034986;28;20352;-56
2021/09/05 10:21:34;;;;;;;6.30;4.65;;;;;;;37.65;13.91;94694.84;5025812;28;20188;-55
2021/09/05 10:24:02;;;;;;;5.65;4.70;;;;;;;37.66;14.61;94686.22;5017839;28;20060;-53
2021/09/05 10:26:30;;;;;;;7.32;4.25;;;;;;;37.68;14.65;94691.22;5034012;28;20084;-54
2021/09/05 10:28:58;;;;;;;6.90;4.38;;;;;;;38.09;14.09;94691.84;5033289;28;20049;-52
2021/09/05 10:31:37;;;;;;;6.70;4.13;;;;;;;37.96;14.20;94692.00;5034613;28;20049;-54
2021/09/05 10:34:06;;;;;;;5.25;3.72;;;;;;;37.91;14.27;94687.91;5034945;28;20049;-53
2021/09/05 10:36:43;;;;;;;7.85;3.55;;;;;;;37.95;14.46;94688.50;5030054;28;20056;-53
2021/09/05 10:39:10;;;;;;;3.67;3.38;;;;;;;37.90;14.26;94678.22;5054449;28;20044;-53
2021/09/05 10:41:52;;;;;;;4.10;3.55;;;;;;;38.31;13.57;94684.25;5054291;28;20053;-53
2021/09/05 10:44:19;;;;;;;4.28;3.38;;;;;;;38.26;13.53;94676.69;5054673;28;20068;-54
2021/09/05 10:46:52;;;;;;;5.40;3.50;;;;;;;38.06;13.65;94684.56;5054326;28;20057;-54
2021/09/05 10:49:38;;;;;;;4.47;3.70;;;;;;;37.86;13.56;94685.78;5054605;28;20049;-56
2021/09/05 10:52:07;;;;;;;3.90;3.55;;;;;;;37.58;13.53;94684.25;5053554;28;20049;-53
2021/09/05 10:54:46;;;;;;;6.00;3.53;;;;;;;37.52;12.92;94686.06;5035973;28;20049;-53
2021/09/05 10:57:37;;;;;;;3.97;3.58;;;;;;;37.78;12.63;94687.31;5053319;28;20471;-53
2021/09/05 11:00:08;;;;;;;4.07;3.42;;;;;;;37.38;12.95;94675.72;5054269;28;20379;-52
2021/09/05 11:03:05;;;;;;;3.67;3.35;;;;;;;37.23;13.09;94681.75;5054166;28;20052;-52
2021/09/05 11:05:32;;;;;;;4.88;3.33;;;;;;;37.43;13.38;94677.84;5047354;28;20053;-54
2021/09/05 11:08:38;;;;;;;4.57;3.20;;;;;;;37.05;13.62;94687.16;5036948;28;20060;-55
2021/09/05 11:11:07;;;;;;;5.38;4.00;;;;;;;37.19;13.84;94692.00;4987180;28;20054;-54
2021/09/05 11:13:48;;;;;;;5.20;3.30;;;;;;;36.71;13.87;94682.63;4973183;28;20062;-53
2021/09/05 11:16:16;;;;;;;3.55;3.25;;;;;;;37.03;13.68;94678.66;5008495;28;20053;-54
2021/09/05 11:18:47;;;;;;;5.20;3.40;;;;;;;36.93;14.13;94691.47;5034469;28;20049;-57
2021/09/05 11:21:25;;;;;;;3.92;3.50;;;;;;;37.29;13.55;94685.41;5033291;28;20057;-53
2021/09/05 11:23:52;;;;;;;5.10;3.40;;;;;;;37.26;14.01;94680.88;5053224;28;20067;-55
2021/09/05 11:26:25;;;;;;;6.45;3.45;;;;;;;37.41;13.51;94678.31;5043053;28;20463;-55
2021/09/05 11:28:53;;;;;;;4.72;3.70;;;;;;;36.87;13.89;94684.34;5016952;28;20049;-55
2021/09/05 11:31:21;;;;;;;5.68;3.78;;;;;;;37.15;13.57;94680.50;5033945;28;20053;-56
2021/09/05 11:33:48;;;;;;;5.07;3.30;;;;;;;37.18;13.85;94685.03;5052110;28;20045;-53
2021/09/05 11:36:16;;;;;;;3.17;2.88;;;;;;;37.34;14.12;94693.00;5053182;28;20056;-53
2021/09/05 11:38:44;;;;;;;4.78;3.63;;;;;;;37.39;13.82;94688.91;5054035;28;20041;-52
2021/09/05 11:41:11;;;;;;;5.95;3.83;;;;;;;37.31;13.37;94683.00;5056409;28;20111;-53
2021/09/05 11:43:41;;;;;;;4.68;3.00;;;;;;;37.08;13.89;94683.53;5023736;28;20361;-55
2021/09/05 11:46:13;;;;;;;;;;;;;;;36.93;13.60;94685.28;5038227;28;20080;-54
2021/09/05 11:49:00;;;;;;;4.27;3.50;;;;;;;37.01;14.12;94681.84;5037030;28;19913;-56
2021/09/05 11:51:32;;;;;;;6.20;3.17;;;;;;;36.89;13.79;94687.38;5037903;28;20053;-54
2021/09/05 11:54:06;;;;;;;4.70;3.42;;;;;;;36.94;13.65;94686.78;5056316;28;20064;-57
2021/09/05 11:56:33;;;;;;;3.50;3.20;;;;;;;36.79;13.68;94685.84;5041797;28;20045;-54
2021/09/05 11:59:13;;;;;;;3.25;2.95;;;;;;;36.28;14.23;94681.44;5045173;28;20064;-53
2021/09/05 12:01:47;;;;;;;4.00;2.92;;;;;;;36.54;13.79;94692.97;5047246;28;20056;-55